createdAt,value
2022-08-03T00:00:15.650Z,61.84
2022-08-03T00:01:15.657Z,62.16
2022-08-03T00:02:15.889Z,64.81
2022-08-03T00:03:15.702Z,65.78
2022-08-03T00:04:15.665Z,67.58
2022-08-03T00:05:15.600Z,65.78
2022-08-03T00:06:15.580Z,63.92
2022-08-03T00:07:15.595Z,61.57
2022-08-03T00:08:15.573Z,60.99
2022-08-03T00:09:15.580Z,60.63
2022-08-03T00:10:15.527Z,60.50
2022-08-03T00:11:15.533Z,59.85
2022-08-03T00:12:15.765Z,61.07
2022-08-03T00:13:15.496Z,63.10
2022-08-03T00:14:15.501Z,64.71
2022-08-03T00:15:16.854Z,66.77
2022-08-03T00:16:15.459Z,68.52
2022-08-03T00:17:15.469Z,69.66
2022-08-03T00:18:15.482Z,71.02
2022-08-03T00:19:15.439Z,70.24
2022-08-03T00:20:15.423Z,69.66
2022-08-03T00:21:15.731Z,67.31
2022-08-03T00:22:15.614Z,66.61
2022-08-03T00:23:15.367Z,67.53
2022-08-03T00:24:15.356Z,67.31
2022-08-03T00:25:15.374Z,65.36
2022-08-03T00:26:15.330Z,63.53
2022-08-03T00:27:16.723Z,61.66
2022-08-03T00:28:15.304Z,61.07
2022-08-03T00:29:15.301Z,59.77
2022-08-03T00:30:15.271Z,59.09
2022-08-03T00:31:15.280Z,59.34
2022-08-03T00:32:15.450Z,59.68
2022-08-03T00:33:15.317Z,59.30
2022-08-03T00:34:15.244Z,58.35
2022-08-03T00:35:36.621Z,56.65
2022-08-03T00:36:15.209Z,56.73
2022-08-03T00:37:15.194Z,57.08
2022-08-03T00:38:15.180Z,57.99
2022-08-03T00:39:15.198Z,59.68
2022-08-03T00:40:15.148Z,60.37
2022-08-03T00:41:15.750Z,59.81
2022-08-03T00:42:15.465Z,59.60
2022-08-03T00:43:15.189Z,61.43
2022-08-03T00:44:15.081Z,64.06
2022-08-03T00:45:15.155Z,66.67
2022-08-03T00:46:20.557Z,66.77
2022-08-03T00:47:15.086Z,68.63
2022-08-03T00:48:23.311Z,70.54
2022-08-03T00:49:15.090Z,72.37
2022-08-03T00:50:15.024Z,73.45
2022-08-03T00:51:15.012Z,73.13
2022-08-03T00:52:15.048Z,72.06
2022-08-03T00:53:15.020Z,68.41
2022-08-03T00:54:15.011Z,68.35
2022-08-03T00:55:14.952Z,66.24
2022-08-03T00:56:14.928Z,63.48
2022-08-03T00:57:14.936Z,63.15
2022-08-03T00:58:14.900Z,60.37
2022-08-03T00:59:14.901Z,59.51
2022-08-03T01:00:14.922Z,59.30
2022-08-03T01:01:15.006Z,58.60
2022-08-03T01:02:15.014Z,57.51
2022-08-03T01:03:14.875Z,57.08
2022-08-03T01:04:14.855Z,55.86
2022-08-03T01:05:14.830Z,53.88
2022-08-03T01:06:14.828Z,52.07
2022-08-03T01:07:14.794Z,51.18
2022-08-03T01:08:14.800Z,51.82
2022-08-03T01:09:14.797Z,51.40
2022-08-03T01:10:14.778Z,51.75
2022-08-03T01:11:14.737Z,52.80
2022-08-03T01:12:14.972Z,51.88
2022-08-03T01:14:01.764Z,51.09
2022-08-03T01:14:23.016Z,50.17
2022-08-03T01:15:14.707Z,51.43
2022-08-03T01:16:14.693Z,52.17
2022-08-03T01:17:14.673Z,52.96
2022-08-03T01:18:14.655Z,54.55
2022-08-03T01:19:14.643Z,55.64
2022-08-03T01:20:14.642Z,56.46
2022-08-03T01:21:14.616Z,58.11
2022-08-03T01:22:14.861Z,61.34
2022-08-03T01:23:14.621Z,61.12
2022-08-03T01:24:14.600Z,60.81
2022-08-03T01:25:14.598Z,61.79
2022-08-03T01:26:14.592Z,62.53
2022-08-03T01:27:14.547Z,63.67
2022-08-03T01:28:14.591Z,64.46
2022-08-03T01:29:14.498Z,65.88
2022-08-03T01:30:14.523Z,64.36
2022-08-03T01:31:14.515Z,62.86
2022-08-03T01:32:59.599Z,60.41
2022-08-03T01:33:14.526Z,58.31
2022-08-03T01:34:14.731Z,58.23
2022-08-03T01:35:14.474Z,59.38
2022-08-03T01:36:14.448Z,60.54
2022-08-03T01:37:14.428Z,61.66
2022-08-03T01:38:14.394Z,63.19
2022-08-03T01:39:14.378Z,65.11
2022-08-03T01:40:14.388Z,65.31
2022-08-03T01:41:14.358Z,66.29
2022-08-03T01:42:14.547Z,66.88
2022-08-03T01:43:14.478Z,68.24
2022-08-03T01:44:29.068Z,69.20
2022-08-03T01:45:14.299Z,70.18
2022-08-03T01:46:14.299Z,66.93
2022-08-03T01:47:14.264Z,63.00
2022-08-03T01:48:14.289Z,60.85
2022-08-03T01:49:14.301Z,58.97
2022-08-03T01:50:14.290Z,56.85
2022-08-03T01:51:14.243Z,54.91
2022-08-03T01:52:14.345Z,53.92
2022-08-03T01:53:14.227Z,53.06
2022-08-03T01:54:14.205Z,52.07
2022-08-03T01:55:14.164Z,52.56
2022-08-03T01:56:14.165Z,54.84
2022-08-03T01:57:14.143Z,59.77
2022-08-03T01:58:14.140Z,66.03
2022-08-03T01:59:14.131Z,68.41
2022-08-03T02:00:14.156Z,70.48
2022-08-03T02:01:14.166Z,71.02
2022-08-03T02:02:31.722Z,70.30
2022-08-03T02:03:14.104Z,72.31
2022-08-03T02:04:14.082Z,70.30
2022-08-03T02:05:14.025Z,68.91
2022-08-03T02:06:59.709Z,68.97
2022-08-03T02:07:14.023Z,70.07
2022-08-03T02:08:14.014Z,73.13
2022-08-03T02:09:14.042Z,74.82
2022-08-03T02:10:13.991Z,75.50
2022-08-03T02:11:13.962Z,77.17
2022-08-03T02:12:14.315Z,78.76
2022-08-03T02:13:13.957Z,79.74
2022-08-03T02:14:13.933Z,86.23
2022-08-03T02:15:13.898Z,89.74
2022-08-03T02:16:13.902Z,88.79
2022-08-03T02:17:13.914Z,87.12
2022-08-03T02:18:13.881Z,81.68
2022-08-03T02:19:13.851Z,78.54
2022-08-03T02:20:13.852Z,75.70
2022-08-03T02:21:55.964Z,74.29
2022-08-03T02:22:13.946Z,76.25
2022-08-03T02:23:13.809Z,76.67
2022-08-03T02:24:13.778Z,75.77
2022-08-03T02:25:13.775Z,80.51
2022-08-03T02:26:13.796Z,83.14
2022-08-03T02:27:13.776Z,85.70
2022-08-03T02:28:13.734Z,83.48
2022-08-03T02:29:13.718Z,80.35
2022-08-03T02:30:13.728Z,76.82
2022-08-03T02:31:13.708Z,75.57
2022-08-03T02:32:13.859Z,75.50
2022-08-03T02:33:13.708Z,74.56
2022-08-03T02:34:13.664Z,74.49
2022-08-03T02:35:13.632Z,73.64
2022-08-03T02:36:13.614Z,75.43
2022-08-03T02:37:13.668Z,76.25
2022-08-03T02:38:13.626Z,75.77
2022-08-03T02:39:13.600Z,74.03
2022-08-03T02:40:13.585Z,71.26
2022-08-03T02:41:13.663Z,69.08
2022-08-03T02:42:13.557Z,68.74
2022-08-03T02:43:13.514Z,69.60
2022-08-03T02:44:13.533Z,69.78
2022-08-03T02:45:13.522Z,68.29
2022-08-03T02:46:13.493Z,66.61
2022-08-03T02:47:13.475Z,64.86
2022-08-03T02:48:13.483Z,63.43
2022-08-03T02:49:40.762Z,60.85
2022-08-03T02:50:13.544Z,58.97
2022-08-03T02:51:13.482Z,57.12
2022-08-03T02:52:13.539Z,56.92
2022-08-03T02:53:13.393Z,57.59
2022-08-03T02:54:13.408Z,58.03
2022-08-03T02:55:13.397Z,60.76
2022-08-03T02:56:13.356Z,61.66
2022-08-03T02:57:13.323Z,61.30
2022-08-03T02:58:13.344Z,61.12
2022-08-03T02:59:13.289Z,61.98
2022-08-03T03:00:13.284Z,63.58
2022-08-03T03:01:13.354Z,65.83
2022-08-03T03:02:13.427Z,66.45
2022-08-03T03:03:13.266Z,67.20
2022-08-03T03:04:13.226Z,69.31
2022-08-03T03:05:54.926Z,71.08
2022-08-03T03:06:13.209Z,73.90
2022-08-03T03:07:13.188Z,76.53
2022-08-03T03:08:18.505Z,77.60
2022-08-03T03:09:13.181Z,79.74
2022-08-03T03:10:13.165Z,77.38
2022-08-03T03:11:13.142Z,73.71
2022-08-03T03:12:13.461Z,70.72
2022-08-03T03:13:13.118Z,69.78
2022-08-03T03:14:13.119Z,69.14
2022-08-03T03:15:13.127Z,70.30
2022-08-03T03:16:13.078Z,68.57
2022-08-03T03:17:13.061Z,70.01
2022-08-03T03:18:13.073Z,66.56
2022-08-03T03:19:13.033Z,64.11
2022-08-03T03:20:13.042Z,61.57
2022-08-03T03:21:13.057Z,62.25
2022-08-03T03:22:13.164Z,62.63
2022-08-03T03:23:13.030Z,61.43
2022-08-03T03:24:12.987Z,63.34
2022-08-03T03:25:12.972Z,66.03
2022-08-03T03:26:12.939Z,68.29
2022-08-03T03:27:16.734Z,67.91
2022-08-03T03:28:12.944Z,71.02
2022-08-03T03:29:12.912Z,75.09
2022-08-03T03:30:12.909Z,81.37
2022-08-03T03:31:12.876Z,87.03
2022-08-03T03:32:13.044Z,86.94
2022-08-03T03:33:12.847Z,84.83
2022-08-03T03:34:12.822Z,87.12
2022-08-03T03:35:12.819Z,86.49
2022-08-03T03:36:12.800Z,90.81
2022-08-03T03:37:12.802Z,96.32
2022-08-03T03:38:12.784Z,103.01
2022-08-03T03:39:16.015Z,108.20
2022-08-03T03:40:12.789Z,113.79
2022-08-03T03:41:12.739Z,118.37
2022-08-03T03:42:12.871Z,121.73
2022-08-03T03:43:12.760Z,121.03
2022-08-03T03:44:12.737Z,119.64
2022-08-03T03:45:12.667Z,120.07
2022-08-03T03:46:12.730Z,121.38
2022-08-03T03:47:12.683Z,119.39
2022-08-03T03:48:12.672Z,118.04
2022-08-03T03:49:12.709Z,113.02
2022-08-03T03:50:12.620Z,110.27
2022-08-03T03:51:12.634Z,110.27
2022-08-03T03:52:12.650Z,115.60
2022-08-03T03:53:12.616Z,114.10
2022-08-03T03:54:12.645Z,107.72
2022-08-03T03:55:12.574Z,97.33
2022-08-03T03:56:12.565Z,96.93
2022-08-03T03:57:13.095Z,94.60
2022-08-03T03:58:12.635Z,90.71
2022-08-03T03:59:12.509Z,87.85
2022-08-03T04:00:12.489Z,84.40
2022-08-03T04:01:12.566Z,81.21
2022-08-03T04:02:12.523Z,82.98
2022-08-03T04:03:12.455Z,81.21
2022-08-03T04:04:12.476Z,77.67
2022-08-03T04:05:12.397Z,77.03
2022-08-03T04:06:12.413Z,76.25
2022-08-03T04:07:12.376Z,74.96
2022-08-03T04:08:12.379Z,74.89
2022-08-03T04:09:12.404Z,75.64
2022-08-03T04:10:14.613Z,75.57
2022-08-03T04:11:12.333Z,76.12
2022-08-03T04:12:12.331Z,76.12
2022-08-03T04:13:12.283Z,75.50
2022-08-03T04:14:12.294Z,73.45
2022-08-03T04:15:12.285Z,74.16
2022-08-03T04:16:12.273Z,76.82
2022-08-03T04:17:12.248Z,79.51
2022-08-03T04:18:12.247Z,81.53
2022-08-03T04:19:12.229Z,78.03
2022-08-03T04:20:12.247Z,75.09
2022-08-03T04:21:12.203Z,75.23
2022-08-03T04:22:12.176Z,74.16
2022-08-03T04:23:13.721Z,75.70
2022-08-03T04:24:12.164Z,79.82
2022-08-03T04:25:12.173Z,82.90
2022-08-03T04:26:12.135Z,82.90
2022-08-03T04:27:12.109Z,81.61
2022-08-03T04:28:31.052Z,79.59
2022-08-03T04:29:12.075Z,77.03
2022-08-03T04:30:12.087Z,74.36
2022-08-03T04:31:12.058Z,71.56
2022-08-03T04:32:12.054Z,69.26
2022-08-03T04:33:12.058Z,68.07
2022-08-03T04:34:12.040Z,66.45
2022-08-03T04:35:12.030Z,65.16
2022-08-03T04:36:12.071Z,64.06
2022-08-03T04:37:12.017Z,61.98
2022-08-03T04:38:11.982Z,61.93
2022-08-03T04:39:11.954Z,61.84
2022-08-03T04:40:13.001Z,61.30
2022-08-03T04:41:11.955Z,62.02
2022-08-03T04:42:11.914Z,61.30
2022-08-03T04:43:11.899Z,62.96
2022-08-03T04:44:11.888Z,63.87
2022-08-03T04:45:11.880Z,63.82
2022-08-03T04:46:11.883Z,65.42
2022-08-03T04:47:11.826Z,66.77
2022-08-03T04:48:11.844Z,66.82
2022-08-03T04:49:11.871Z,66.19
2022-08-03T04:50:13.558Z,66.19
2022-08-03T04:51:11.778Z,67.20
2022-08-03T04:52:11.787Z,72.12
2022-08-03T04:53:11.773Z,78.03
2022-08-03T04:54:11.771Z,79.59
2022-08-03T04:55:11.720Z,82.41
2022-08-03T04:56:11.743Z,90.42
2022-08-03T04:57:11.725Z,97.67
2022-08-03T04:58:11.722Z,100.18
2022-08-03T04:59:11.672Z,99.00
2022-08-03T05:00:11.679Z,103.52
2022-08-03T05:01:11.679Z,106.62
2022-08-03T05:02:11.756Z,113.87
2022-08-03T05:03:23.720Z,119.39
2022-08-03T05:04:11.643Z,123.53
2022-08-03T05:05:11.610Z,125.47
2022-08-03T05:06:11.820Z,126.99
2022-08-03T05:07:12.615Z,126.22
2022-08-03T05:08:11.603Z,127.38
2022-08-03T05:09:11.570Z,129.24
2022-08-03T05:10:16.173Z,127.57
2022-08-03T05:11:11.537Z,125.75
2022-08-03T05:12:11.524Z,124.91
2022-08-03T05:13:11.498Z,128.35
2022-08-03T05:14:11.493Z,132.20
2022-08-03T05:15:11.484Z,130.86
2022-08-03T05:16:11.459Z,128.16
2022-08-03T05:17:11.469Z,129.34
2022-08-03T05:18:14.105Z,131.37
2022-08-03T05:19:11.445Z,135.30
2022-08-03T05:20:11.433Z,137.29
2022-08-03T05:21:11.405Z,138.66
2022-08-03T05:22:11.406Z,141.95
2022-08-03T05:23:11.380Z,144.02
2022-08-03T05:24:11.354Z,141.47
2022-08-03T05:25:17.740Z,144.27
2022-08-03T05:26:11.340Z,146.16
2022-08-03T05:27:11.312Z,149.82
2022-08-03T05:28:11.313Z,153.25
2022-08-03T05:29:11.316Z,157.72
2022-08-03T05:30:29.682Z,162.94
2022-08-03T05:31:11.299Z,170.40
2022-08-03T05:32:11.268Z,177.25
2022-08-03T05:33:11.234Z,188.46
2022-08-03T05:34:11.209Z,201.48
2022-08-03T05:36:02.728Z,212.40
2022-08-03T05:36:11.204Z,216.73
2022-08-03T05:37:11.194Z,225.02
2022-08-03T05:38:11.155Z,238.72
2022-08-03T05:39:11.165Z,259.82
2022-08-03T05:40:11.139Z,290.79
2022-08-03T05:41:21.124Z,322.70
2022-08-03T05:42:11.115Z,344.65
2022-08-03T05:43:11.144Z,363.27
2022-08-03T05:44:11.085Z,385.78
2022-08-03T05:45:11.092Z,398.89
2022-08-03T05:46:12.120Z,419.91
2022-08-03T05:47:11.082Z,447.71
2022-08-03T05:48:11.049Z,456.88
2022-08-03T05:49:11.055Z,478.09
2022-08-03T05:50:11.004Z,491.43
2022-08-03T05:51:11.296Z,498.01
2022-08-03T05:52:14.056Z,524.97
2022-08-03T05:53:11.012Z,536.75
2022-08-03T05:54:10.954Z,547.73
2022-08-03T05:55:10.965Z,552.25
2022-08-03T05:56:14.147Z,563.88
2022-08-03T05:57:10.945Z,572.57
2022-08-03T05:58:10.936Z,591.28
2022-08-03T05:59:35.830Z,596.02
2022-08-03T06:00:10.902Z,604.09
2022-08-03T06:01:10.914Z,612.38
2022-08-03T06:02:10.862Z,625.54
2022-08-03T06:03:10.834Z,622.05
2022-08-03T06:04:10.834Z,624.96
2022-08-03T06:05:10.836Z,645.45
2022-08-03T06:06:10.794Z,672.02
2022-08-03T06:07:10.806Z,692.89
2022-08-03T06:08:10.769Z,714.33
2022-08-03T06:09:10.785Z,724.38
2022-08-03T06:10:35.020Z,729.12
2022-08-03T06:11:10.738Z,738.78
2022-08-03T06:12:14.023Z,749.02
2022-08-03T06:13:10.703Z,766.59
2022-08-03T06:14:10.714Z,760.50
2022-08-03T06:15:11.598Z,761.36
2022-08-03T06:16:10.680Z,760.07
2022-08-03T06:17:10.675Z,769.67
2022-08-03T06:18:10.650Z,799.52
2022-08-03T06:19:10.624Z,807.23
2022-08-03T06:20:10.643Z,832.30
2022-08-03T06:21:15.664Z,873.53
2022-08-03T06:22:10.589Z,908.47
2022-08-03T06:23:16.211Z,935.10
2022-08-03T06:24:10.589Z,952.38
2022-08-03T06:25:12.927Z,958.51
2022-08-03T06:26:12.105Z,971.72
2022-08-03T06:27:11.034Z,990.39
2022-08-03T06:28:15.068Z,1023.68
2022-08-03T06:29:10.518Z,1026.82
2022-08-03T06:30:10.527Z,1023.68
2022-08-03T06:31:10.480Z,1029.19
2022-08-03T06:32:10.543Z,1032.36
2022-08-03T06:33:10.458Z,1035.55
2022-08-03T06:34:33.441Z,1035.55
2022-08-03T06:35:10.450Z,1029.98
2022-08-03T06:36:10.418Z,1045.24
2022-08-03T06:37:10.398Z,1048.51
2022-08-03T06:38:10.384Z,1068.58
2022-08-03T06:39:10.406Z,1071.14
2022-08-03T06:40:10.378Z,1086.78
2022-08-03T06:41:10.360Z,1112.96
2022-08-03T06:42:10.425Z,1126.05
2022-08-03T06:43:12.632Z,1148.24
2022-08-03T06:44:10.455Z,1172.35
2022-08-03T06:45:10.319Z,1179.58
2022-08-03T06:46:10.289Z,1189.00
2022-08-03T06:47:10.362Z,1190.05
2022-08-03T06:48:10.250Z,1211.57
2022-08-03T06:49:10.298Z,1229.36
2022-08-03T06:50:16.278Z,1235.02
2022-08-03T06:51:10.235Z,1221.51
2022-08-03T06:52:10.218Z,1238.45
2022-08-03T06:53:10.198Z,1250.00
2022-08-03T06:54:10.203Z,1243.04
2022-08-03T06:55:10.159Z,1239.59
2022-08-03T06:56:10.195Z,1229.36
2022-08-03T06:57:10.134Z,1260.58
2022-08-03T06:58:10.113Z,1316.31
2022-08-03T06:59:10.114Z,1356.28
2022-08-03T07:00:12.585Z,1382.87
2022-08-03T07:01:10.177Z,1370.14
2022-08-03T07:02:10.122Z,1375.77
2022-08-03T07:03:10.063Z,1387.16
2022-08-03T07:04:10.042Z,1414.99
2022-08-03T07:05:10.048Z,1436.23
2022-08-03T07:06:10.027Z,1466.08
2022-08-03T07:07:09.998Z,1509.01
2022-08-03T07:08:10.002Z,1537.58
2022-08-03T07:09:10.018Z,1587.68
2022-08-03T07:10:09.968Z,1613.48
2022-08-03T07:11:09.973Z,1616.41
2022-08-03T07:12:10.213Z,1659.44
2022-08-03T07:13:09.942Z,1689.79
2022-08-03T07:14:09.936Z,1716.85
2022-08-03T07:15:20.527Z,1724.58
2022-08-03T07:16:09.878Z,1724.58
2022-08-03T07:17:11.916Z,1759.68
2022-08-03T07:18:09.863Z,1767.81
2022-08-03T07:19:09.867Z,1724.58
2022-08-03T07:20:09.845Z,1702.67
2022-08-03T07:21:09.838Z,1710.27
2022-08-03T07:22:09.868Z,1742.52
2022-08-03T07:23:09.873Z,1727.92
2022-08-03T07:24:09.804Z,1743.66
2022-08-03T07:25:09.802Z,1731.27
2022-08-03T07:26:09.770Z,1753.93
2022-08-03T07:27:09.743Z,1789.05
2022-08-03T07:28:09.780Z,1812.04
2022-08-03T07:29:14.717Z,1819.42
2022-08-03T07:30:09.757Z,1826.86
2022-08-03T07:31:09.793Z,1868.90
2022-08-03T07:32:09.845Z,1942.03
2022-08-03T07:33:09.772Z,2015.04
2022-08-03T07:34:09.837Z,2025.70
2022-08-03T07:35:24.468Z,2066.31
2022-08-03T07:36:09.745Z,2074.30
2022-08-03T07:37:09.749Z,2110.24
2022-08-03T07:38:09.654Z,2103.61
2022-08-03T07:39:15.402Z,2157.81
2022-08-03T07:40:09.727Z,2101.96
2022-08-03T07:41:09.677Z,2130.36
2022-08-03T07:42:09.688Z,2149.16
2022-08-03T07:43:09.699Z,2163.03
2022-08-03T07:44:09.590Z,2173.56
2022-08-03T07:45:09.653Z,2200.33
2022-08-03T07:46:09.612Z,2237.06
2022-08-03T07:47:09.624Z,2254.00
2022-08-03T07:48:12.408Z,2284.74
2022-08-03T07:49:09.604Z,2255.89
2022-08-03T07:50:09.590Z,2296.49
2022-08-03T07:51:09.543Z,2282.79
2022-08-03T07:52:09.555Z,2332.46
2022-08-03T07:53:10.177Z,2324.37
2022-08-03T07:54:09.517Z,2380.11
2022-08-03T07:55:09.464Z,2384.34
2022-08-03T07:56:11.377Z,2399.28
2022-08-03T07:57:09.481Z,2486.08
2022-08-03T07:58:09.497Z,2493.02
2022-08-03T07:59:09.403Z,2476.89
2022-08-03T08:00:09.398Z,2463.24
2022-08-03T08:01:09.441Z,2470.05
2022-08-03T08:02:09.309Z,2547.53
2022-08-03T08:03:09.376Z,2554.81
2022-08-03T08:04:09.494Z,2576.92
2022-08-03T08:05:09.394Z,2596.90
2022-08-03T08:06:09.288Z,2656.09
2022-08-03T08:07:09.354Z,2648.22
2022-08-03T08:08:09.313Z,2696.18
2022-08-03T08:09:09.364Z,2682.68
2022-08-03T08:10:09.332Z,2707.07
2022-08-03T08:11:09.335Z,2690.76
2022-08-03T08:12:15.353Z,2743.09
2022-08-03T08:13:09.297Z,2745.90
2022-08-03T08:14:09.256Z,2794.58
2022-08-03T08:15:09.138Z,2803.35
2022-08-03T08:16:09.233Z,2800.42
2022-08-03T08:17:09.242Z,2743.09
2022-08-03T08:18:09.197Z,2748.72
2022-08-03T08:19:09.085Z,2754.37
2022-08-03T08:20:09.073Z,2754.37
2022-08-03T08:21:09.068Z,2718.05
2022-08-03T08:22:09.043Z,2765.74
2022-08-03T08:23:19.926Z,2774.33
2022-08-03T08:24:13.350Z,2745.90
2022-08-03T08:25:09.013Z,2782.97
2022-08-03T08:26:08.968Z,2809.22
2022-08-03T08:27:09.008Z,2863.25
2022-08-03T08:28:30.758Z,2881.72
2022-08-03T08:29:09.067Z,2869.38
2022-08-03T08:30:12.215Z,2894.17
2022-08-03T08:31:09.025Z,2875.54
2022-08-03T08:32:08.991Z,2884.82
2022-08-03T08:33:22.191Z,2903.57
2022-08-03T08:34:08.995Z,2909.88
2022-08-03T08:35:08.973Z,2945.05
2022-08-03T08:36:13.317Z,2919.39
2022-08-03T08:37:08.888Z,2971.18
2022-08-03T08:38:08.852Z,2989.40
2022-08-03T08:39:08.828Z,3004.48
2022-08-03T08:40:08.832Z,2981.09
2022-08-03T08:41:08.827Z,2913.04
2022-08-03T08:42:08.771Z,2884.82
2022-08-03T08:43:08.910Z,2857.14
2022-08-03T08:44:08.760Z,2928.96
2022-08-03T08:45:08.784Z,2806.28
2022-08-03T08:46:08.745Z,2821.05
2022-08-03T08:47:08.743Z,2891.05
2022-08-03T08:48:08.725Z,2945.05
2022-08-03T08:49:08.764Z,3028.25
2022-08-03T08:50:27.400Z,2974.47
2022-08-03T08:51:08.825Z,3040.27
2022-08-03T08:52:24.826Z,3069.87
2022-08-03T08:53:09.751Z,3103.65
2022-08-03T08:54:08.625Z,3036.83
2022-08-03T08:55:08.623Z,3054.13
2022-08-03T08:56:08.634Z,3119.91
2022-08-03T08:57:21.320Z,3175.35
2022-08-03T08:58:08.700Z,3140.01
2022-08-03T08:59:08.669Z,3203.82
2022-08-03T09:00:08.674Z,3201.91
2022-08-03T09:01:08.704Z,3234.76
2022-08-03T09:02:08.641Z,3179.12
2022-08-03T09:03:08.647Z,3171.60
2022-08-03T09:04:08.545Z,3181.01
2022-08-03T09:05:08.524Z,3198.09
2022-08-03T09:06:08.642Z,3171.60
2022-08-03T09:07:20.170Z,3186.68
2022-08-03T09:08:08.576Z,3246.52
2022-08-03T09:09:08.586Z,3242.59
2022-08-03T09:10:12.755Z,3226.97
2022-08-03T09:11:08.549Z,3145.54
2022-08-03T09:12:35.273Z,3198.09
2022-08-03T09:13:08.523Z,3248.48
2022-08-03T09:14:08.499Z,3298.46
2022-08-03T09:15:16.915Z,3298.46
2022-08-03T09:16:08.492Z,3341.65
2022-08-03T09:17:08.458Z,3316.83
2022-08-03T09:18:08.469Z,3304.56
2022-08-03T09:19:08.495Z,3286.33
2022-08-03T09:20:08.510Z,3272.28
2022-08-03T09:21:29.758Z,3294.41
2022-08-03T09:22:08.536Z,3302.53
2022-08-03T09:23:26.306Z,3316.83
2022-08-03T09:24:16.406Z,3375.31
2022-08-03T09:25:23.848Z,3318.89
2022-08-03T09:26:09.148Z,3347.91
2022-08-03T09:27:08.365Z,3341.65
2022-08-03T09:28:08.439Z,3320.94
2022-08-03T09:29:13.825Z,3333.33
2022-08-03T09:30:33.767Z,3323.00
2022-08-03T09:31:08.318Z,3221.15
2022-08-03T09:32:08.234Z,3118.09
2022-08-03T09:33:08.555Z,3112.66
2022-08-03T09:34:08.225Z,3219.22
2022-08-03T09:35:09.560Z,3260.34
2022-08-03T09:36:08.219Z,3316.83
2022-08-03T09:37:08.208Z,3350.00
2022-08-03T09:38:12.669Z,3320.94
2022-08-03T09:39:08.162Z,3286.33
2022-08-03T09:40:08.370Z,3278.29
2022-08-03T09:41:08.156Z,3333.33
2022-08-03T09:42:08.116Z,3358.40
2022-08-03T09:43:08.135Z,3398.86
2022-08-03T09:44:08.116Z,3460.30
2022-08-03T09:45:08.085Z,3478.26
2022-08-03T09:46:08.055Z,3433.70
2022-08-03T09:47:08.054Z,3375.31
2022-08-03T09:48:08.049Z,3392.41
2022-08-03T09:49:10.663Z,3411.84
2022-08-03T09:50:08.013Z,3411.84
2022-08-03T09:51:14.371Z,3347.91
2022-08-03T09:52:39.439Z,3394.55
2022-08-03T09:53:08.063Z,3403.17
2022-08-03T09:54:16.286Z,3403.17
2022-08-03T09:55:07.957Z,3460.30
2022-08-03T09:56:40.044Z,3482.78
2022-08-03T09:57:07.952Z,3535.62
2022-08-03T09:58:07.957Z,3517.06
2022-08-03T09:59:07.941Z,3449.16
2022-08-03T10:00:08.512Z,3440.31
2022-08-03T10:01:07.973Z,3383.84
2022-08-03T10:02:07.913Z,3381.70
2022-08-03T10:03:07.889Z,3373.19
2022-08-03T10:04:07.910Z,3373.19
2022-08-03T10:05:07.872Z,3390.26
2022-08-03T10:06:07.873Z,3373.19
2022-08-03T10:07:07.886Z,3333.33
2022-08-03T10:08:07.859Z,3314.78
2022-08-03T10:09:07.865Z,3266.30
2022-08-03T10:10:31.261Z,3238.67
2022-08-03T10:11:07.821Z,3228.92
2022-08-03T10:12:07.907Z,3268.29
2022-08-03T10:13:07.807Z,3310.69
2022-08-03T10:14:07.840Z,3302.53
2022-08-03T10:15:07.782Z,3306.60
2022-08-03T10:16:28.858Z,3209.58
2022-08-03T10:17:07.801Z,3274.28
2022-08-03T10:18:07.795Z,3256.38
2022-08-03T10:19:07.731Z,3288.34
2022-08-03T10:20:07.742Z,3300.49
2022-08-03T10:21:07.785Z,3316.83
2022-08-03T10:22:07.698Z,3250.45
2022-08-03T10:23:07.686Z,3256.38
2022-08-03T10:24:07.717Z,3276.28
2022-08-03T10:25:07.710Z,3292.38
2022-08-03T10:26:07.672Z,3333.33
2022-08-03T10:27:07.706Z,3331.26
2022-08-03T10:28:07.673Z,3302.53
2022-08-03T10:29:07.660Z,3323.00
2022-08-03T10:30:07.654Z,3320.94
2022-08-03T10:31:07.647Z,3388.12
2022-08-03T10:32:07.612Z,3377.44
2022-08-03T10:33:12.331Z,3398.86
2022-08-03T10:34:07.629Z,3373.19
2022-08-03T10:35:19.942Z,3356.29
2022-08-03T10:36:07.600Z,3381.70
2022-08-03T10:37:07.641Z,3333.33
2022-08-03T10:38:07.638Z,3292.38
2022-08-03T10:39:16.358Z,3280.29
2022-08-03T10:40:07.546Z,3314.78
2022-08-03T10:41:07.648Z,3350.00
2022-08-03T10:42:14.716Z,3329.19
2022-08-03T10:43:07.532Z,3320.94
2022-08-03T10:44:07.537Z,3304.56
2022-08-03T10:45:07.531Z,3280.29
2022-08-03T10:46:07.486Z,3366.83
2022-08-03T10:47:07.515Z,3407.50
2022-08-03T10:48:07.495Z,3398.86
2022-08-03T10:49:07.497Z,3409.67
2022-08-03T10:50:07.466Z,3388.12
2022-08-03T10:51:07.424Z,3362.61
2022-08-03T10:52:13.813Z,3331.26
2022-08-03T10:53:07.393Z,3337.48
2022-08-03T10:54:07.411Z,3362.61
2022-08-03T10:55:09.931Z,3388.12
2022-08-03T10:56:07.459Z,3358.40
2022-08-03T10:57:14.503Z,3278.29
2022-08-03T10:58:11.110Z,3331.26
2022-08-03T10:59:08.939Z,3314.78
2022-08-03T11:00:07.502Z,3350.00
2022-08-03T11:01:07.447Z,3373.19
2022-08-03T11:02:07.330Z,3329.19
2022-08-03T11:03:07.334Z,3278.29
2022-08-03T11:04:11.049Z,3272.28
2022-08-03T11:05:07.282Z,3260.34
2022-08-03T11:06:07.288Z,3217.29
2022-08-03T11:07:07.268Z,3213.43
2022-08-03T11:08:07.259Z,3200.00
2022-08-03T11:09:07.260Z,3294.41
2022-08-03T11:10:10.503Z,3268.29
2022-08-03T11:11:07.228Z,3196.18
2022-08-03T11:12:07.218Z,3244.55
2022-08-03T11:13:07.214Z,3232.81
2022-08-03T11:14:07.229Z,3242.59
2022-08-03T11:15:07.300Z,3223.09
2022-08-03T11:16:10.927Z,3188.58
2022-08-03T11:17:07.181Z,3188.58
2022-08-03T11:18:07.235Z,3207.66
2022-08-03T11:19:07.122Z,3209.58
2022-08-03T11:20:07.153Z,3211.50
2022-08-03T11:21:07.124Z,3215.36
2022-08-03T11:22:07.102Z,3230.86
2022-08-03T11:23:07.151Z,3098.27
2022-08-03T11:24:07.254Z,3152.94
2022-08-03T11:25:07.086Z,3145.54
2022-08-03T11:26:07.072Z,3118.09
2022-08-03T11:27:07.058Z,3164.11
2022-08-03T11:28:07.073Z,3192.38
2022-08-03T11:29:07.066Z,3162.24
2022-08-03T11:30:07.037Z,3129.01
2022-08-03T11:31:07.005Z,3045.45
2022-08-03T11:32:07.028Z,3069.87
2022-08-03T11:33:07.000Z,3061.11
2022-08-03T11:34:07.009Z,3021.42
2022-08-03T11:35:07.029Z,2971.18
2022-08-03T11:36:06.985Z,3021.42
2022-08-03T11:37:06.980Z,2961.33
2022-08-03T11:38:07.038Z,3033.39
2022-08-03T11:39:06.927Z,3035.11
2022-08-03T11:40:06.943Z,3007.86
2022-08-03T11:41:06.953Z,3007.86
2022-08-03T11:42:06.934Z,3026.54
2022-08-03T11:43:06.915Z,3021.42
2022-08-03T11:44:06.901Z,3011.24
2022-08-03T11:45:06.888Z,3019.72
2022-08-03T11:46:06.898Z,3014.62
2022-08-03T11:47:06.852Z,2989.40
2022-08-03T11:48:06.872Z,2971.18
2022-08-03T11:49:10.368Z,3002.80
2022-08-03T11:50:06.870Z,3075.16
2022-08-03T11:51:06.831Z,3149.24
2022-08-03T11:52:06.809Z,3059.36
2022-08-03T11:53:06.821Z,2981.09
2022-08-03T11:54:06.794Z,2948.29
2022-08-03T11:55:06.775Z,3021.42
2022-08-03T11:56:06.791Z,3011.24
2022-08-03T11:57:06.782Z,3061.11
2022-08-03T11:59:16.561Z,3045.45
2022-08-03T11:59:24.281Z,3024.83
2022-08-03T12:00:06.744Z,3055.87
2022-08-03T12:01:06.738Z,2989.40
2022-08-03T12:02:06.750Z,2997.76
2022-08-03T12:03:06.872Z,3004.48
2022-08-03T12:04:06.746Z,2997.76
2022-08-03T12:05:06.679Z,2945.05
2022-08-03T12:06:06.689Z,2932.17
2022-08-03T12:07:06.693Z,2945.05
2022-08-03T12:08:07.188Z,2945.05
2022-08-03T12:09:06.669Z,2938.60
2022-08-03T12:10:06.661Z,2958.06
2022-08-03T12:11:06.771Z,2903.57
2022-08-03T12:12:06.644Z,2938.60
2022-08-03T12:14:44.423Z,2951.54
2022-08-03T12:14:54.206Z,2992.74
2022-08-03T12:15:06.610Z,2958.06
2022-08-03T12:16:06.652Z,2932.17
2022-08-03T12:17:06.583Z,2964.60
2022-08-03T12:18:06.581Z,2981.09
2022-08-03T12:19:06.586Z,2967.89
2022-08-03T12:20:06.622Z,2845.01
2022-08-03T12:21:06.527Z,2909.88
2022-08-03T12:22:06.525Z,2948.29
2022-08-03T12:23:06.520Z,2878.62
2022-08-03T12:24:06.507Z,2919.39
2022-08-03T12:25:06.497Z,2916.21
2022-08-03T12:26:06.507Z,2913.04